Terminal Aerodrome Forecast
Issued by NWS San Angelo, TX

Current Version | Previous Version | Text Only | Print | Product List | Glossary Off
Versions: 1 2 3 4 5 6 7 8 9 10 11 12 13 14 15 16 17

000
FTUS44 KSJT 310500
TAFSJT
TAF
KSJT 310520Z 3106/0106 18006KT P6SM SKC
     FM311600 17011KT P6SM FEW080
     FM010000 16006KT P6SM SKC=

USA.gov is the U.S. government's official web portal to all federal, state and local government web resources and services.